Aeroporto :
LOGIN :

Iscrizione | Disclaimer

   EN    FR    IT 

 










Sommario :    VFR   VFR Marginale   IFR   IFR Intensivo   IFR Molto Intensivo
Visibilità : 
Base nubi : 
>= 8 km
>= 3000ft
5 / 8 km
1000 / 3000 ft
1500m / 5 km
500 / 1000 ft
800 / 1500m
200 / 500 ft
< 800m
< 200 ft
Simboli :   Temporali  Nebbia  Neve Forte  Precipitazioni Forti  Vento > 20 kt
SIGMETs :   Varie  Temporali  Ghiacco  Turbolenza  Onda orograficha  Ceneri Vulcaniche







- Altitudine del aeroporto : 3368 ft


LSGC - Les Eplatures

ULTIMO METAR :
  • 260750Z 00000KT 9999 -DZ BKN022 02/02 Q1015

METARs OBSOLETI :
  • 260720Z 23002KT 9999 -DZ OVC016 02/01 Q1015
  • 260650Z 23002KT 9999 BKN023 02/02 Q1014
  • 260620Z AUTO VRB02KT 9999 OVC024 02/01 Q1014
  • 260550Z AUTO VRB02KT 9999 SCT009 OVC027 02/01 Q1014
  • 260520Z AUTO VRB02KT 9999 SCT011 BKN032 BKN060 02/01 Q1013 RERASN

TAF TAF LSGC
Valido dal 26 a 06 ore il 26 a 15 ore UTC


260525Z 2606/2615 26007KT 9999 SCT009 BKN025
BECMG 2610/2612 CAVOK
Nessun NOTAM noto per questo aeroporto.
1 SIGMET conosciuto per la FIR Switzerland (LSAS) :
 
Temporali affogati
LSAS SIGMET 4 VALID 260700/260900 LSZH
LSAS SWITZERLAND FIR/UIR EMBD TS OBS WI N4641 E00836 - N4635 E00933 - N4545 E00902 - N4618 E00815 - N4641 E00836 TOP FL240 STNR NC=



MetMap, La meteo Aeronautica in un colpo d'occhio ! - Copyright ORBIFLY Dicembre 2007 - Disclaimer

ORBIFLY MET'MAP TEAM :

Programmazione e sviluppo : Alexandra Zaïnal
Concezione e sviluppo : Baudouin d'Aumeries
Co-Programmazione e sviluppo : Marc-Olivier Méhu
Supporto tecnico e logistico : Manuel Goepfert
Aiuto per la traduzione : Arnaldo La Scala

Contatto : metmap@orbifly.com




FONTI E CREDITI :

   NOAA